createdAt,value
2019-02-12T00:00:41.097Z,13.07
2019-02-12T00:03:09.612Z,14.97
2019-02-12T00:05:38.025Z,13.90
2019-02-12T00:08:06.453Z,13.97
2019-02-12T00:10:35.188Z,12.40
2019-02-12T00:13:03.757Z,16.13
2019-02-12T00:15:32.152Z,13.03
2019-02-12T00:18:00.845Z,13.97
2019-02-12T00:20:29.361Z,17.50
2019-02-12T00:22:58.064Z,12.07
2019-02-12T00:25:26.711Z,15.87
2019-02-12T00:27:55.357Z,15.00
2019-02-12T00:30:23.849Z,16.00
2019-02-12T00:32:52.246Z,14.83
2019-02-12T00:35:20.729Z,17.47
2019-02-12T00:37:49.125Z,15.13
2019-02-12T00:40:17.537Z,12.07
2019-02-12T00:42:45.925Z,13.60
2019-02-12T00:45:15.162Z,16.83
2019-02-12T00:47:43.629Z,13.33
2019-02-12T00:50:12.240Z,14.90
2019-02-12T00:52:40.805Z,12.10
2019-02-12T00:55:09.421Z,14.93
2019-02-12T00:57:37.833Z,15.63
2019-02-12T01:00:07.443Z,19.10
2019-02-12T01:02:36.014Z,9.70
2019-02-12T01:05:04.769Z,17.87
2019-02-12T01:07:33.202Z,11.70
2019-02-12T01:10:01.668Z,14.20
2019-02-12T01:12:30.118Z,10.47
2019-02-12T01:14:58.526Z,8.10
2019-02-12T01:17:27.062Z,8.00
2019-02-12T01:19:55.490Z,10.00
2019-02-12T01:22:23.962Z,7.00
2019-02-12T01:24:52.434Z,8.23
2019-02-12T01:27:20.846Z,11.40
2019-02-12T01:29:49.232Z,6.70
2019-02-12T01:32:18.077Z,12.87
2019-02-12T01:34:46.470Z,10.07
2019-02-12T01:37:15.478Z,17.15
2019-02-12T01:39:43.933Z,17.83
2019-02-12T01:42:12.438Z,18.17
2019-02-12T01:44:40.891Z,19.20
2019-02-12T01:47:09.375Z,16.10
2019-02-12T01:49:37.738Z,15.87
2019-02-12T01:52:06.226Z,12.43
2019-02-12T01:54:34.622Z,14.37
2019-02-12T01:57:03.100Z,13.20
2019-02-12T01:59:31.555Z,16.97
2019-02-12T02:01:59.935Z,15.17
2019-02-12T02:04:28.315Z,9.60
2019-02-12T02:06:56.714Z,10.53
2019-02-12T02:09:25.159Z,9.53
2019-02-12T02:11:53.559Z,13.97
2019-02-12T02:14:22.026Z,11.03
2019-02-12T02:16:50.699Z,12.87
2019-02-12T02:19:19.083Z,12.03
2019-02-12T02:21:47.551Z,15.83
2019-02-12T02:24:15.947Z,12.43
2019-02-12T02:26:45.931Z,8.00
2019-02-12T02:29:14.327Z,11.87
2019-02-12T02:31:42.723Z,12.63
2019-02-12T02:34:11.107Z,10.70
2019-02-12T02:36:39.575Z,8.53
2019-02-12T02:39:08.348Z,13.37
2019-02-12T02:41:36.751Z,15.10
2019-02-12T02:44:05.228Z,12.63
2019-02-12T02:46:33.624Z,13.13
2019-02-12T02:49:02.043Z,5.60
2019-02-12T02:51:30.508Z,11.37
2019-02-12T02:53:58.924Z,8.73
2019-02-12T02:56:27.393Z,15.27
2019-02-12T02:58:55.828Z,13.93
2019-02-12T03:01:24.321Z,10.43
2019-02-12T03:03:52.712Z,17.50
2019-02-12T03:06:21.156Z,9.37
2019-02-12T03:08:49.640Z,11.60
2019-02-12T03:11:18.032Z,9.23
2019-02-12T03:13:46.423Z,13.27
2019-02-12T03:16:15.556Z,17.03
2019-02-12T03:18:43.968Z,12.73
2019-02-12T03:21:12.444Z,13.57
2019-02-12T03:23:40.845Z,12.43
2019-02-12T03:26:09.245Z,11.03
2019-02-12T03:28:37.620Z,13.57
2019-02-12T03:31:06.012Z,10.47
2019-02-12T03:33:34.478Z,14.20
2019-02-12T03:36:02.882Z,16.40
2019-02-12T03:38:31.315Z,14.93
2019-02-12T03:40:59.701Z,10.97
2019-02-12T03:43:28.529Z,17.13
2019-02-12T03:45:56.985Z,12.10
2019-02-12T03:48:25.528Z,15.80
2019-02-12T03:50:53.987Z,11.80
2019-02-12T03:53:22.368Z,10.57
2019-02-12T03:55:50.800Z,12.67
2019-02-12T03:58:19.252Z,17.10
2019-02-12T04:00:47.700Z,11.13
2019-02-12T04:03:16.568Z,11.43
2019-02-12T04:05:45.384Z,12.37
2019-02-12T04:08:14.085Z,10.87
2019-02-12T04:10:42.471Z,12.47
2019-02-12T04:13:10.917Z,11.93
2019-02-12T04:15:39.400Z,9.80
2019-02-12T04:18:07.869Z,16.20
2019-02-12T04:20:36.258Z,11.27
2019-02-12T04:23:04.816Z,14.33
2019-02-12T04:25:33.454Z,13.60
2019-02-12T04:28:01.922Z,15.67
2019-02-12T04:30:30.306Z,18.67
2019-02-12T04:32:58.965Z,15.20
2019-02-12T04:35:27.445Z,13.77
2019-02-12T04:37:56.161Z,9.70
2019-02-12T04:40:24.678Z,16.27
2019-02-12T04:42:53.082Z,17.17
2019-02-12T04:45:21.449Z,14.10
2019-02-12T04:47:49.857Z,9.43
2019-02-12T04:50:18.325Z,14.90
2019-02-12T04:52:46.723Z,19.70
2019-02-12T04:55:15.114Z,10.77
2019-02-12T04:57:43.507Z,14.37
2019-02-12T05:00:12.714Z,15.03
2019-02-12T05:02:41.149Z,22.13
2019-02-12T05:05:09.917Z,15.60
2019-02-12T05:07:38.430Z,9.07
2019-02-12T05:10:07.752Z,8.87
2019-02-12T05:12:36.138Z,12.17
2019-02-12T05:15:04.936Z,11.30
2019-02-12T05:17:35.713Z,13.83
2019-02-12T05:20:04.773Z,13.63
2019-02-12T05:22:42.869Z,11.73
2019-02-12T05:25:03.938Z,12.43
2019-02-12T05:27:32.330Z,14.70
2019-02-12T05:30:00.713Z,12.77
2019-02-12T05:32:29.098Z,12.70
2019-02-12T05:34:57.850Z,11.00
2019-02-12T05:37:26.254Z,12.37
2019-02-12T05:39:54.934Z,15.53
2019-02-12T05:42:23.600Z,12.63
2019-02-12T05:44:51.970Z,18.53
2019-02-12T05:47:20.672Z,11.90
2019-02-12T05:49:49.255Z,12.47
2019-02-12T05:52:17.649Z,16.90
2019-02-12T05:54:46.048Z,13.83
2019-02-12T05:57:14.440Z,15.93
2019-02-12T05:59:42.818Z,15.47
2019-02-12T06:02:11.293Z,11.87
2019-02-12T06:04:39.675Z,11.67
2019-02-12T06:07:08.082Z,12.30
2019-02-12T06:09:36.474Z,17.43
2019-02-12T06:12:04.882Z,14.57
2019-02-12T06:14:33.420Z,17.07
2019-02-12T06:17:02.091Z,16.23
2019-02-12T06:19:30.499Z,14.33
2019-02-12T06:21:58.914Z,12.93
2019-02-12T06:24:27.646Z,14.70
2019-02-12T06:26:56.031Z,15.57
2019-02-12T06:29:24.478Z,12.80
2019-02-12T06:31:52.946Z,12.17
2019-02-12T06:34:21.321Z,15.00
2019-02-12T06:36:50.167Z,19.70
2019-02-12T06:39:18.539Z,15.33
2019-02-12T06:41:47.023Z,17.37
2019-02-12T06:44:15.651Z,18.57
2019-02-12T06:46:44.107Z,8.17
2019-02-12T06:49:12.567Z,13.83
2019-02-12T06:51:41.351Z,22.20
2019-02-12T06:54:10.112Z,13.63
2019-02-12T06:56:38.563Z,20.13
2019-02-12T06:59:06.991Z,12.67
2019-02-12T07:01:35.399Z,12.73
2019-02-12T07:04:09.007Z,13.60
2019-02-12T07:07:02.811Z,14.77
2019-02-12T07:09:33.668Z,18.03
2019-02-12T07:12:30.515Z,17.67
2019-02-12T07:15:19.204Z,15.80
2019-02-12T07:18:01.851Z,19.60
2019-02-12T07:20:34.491Z,16.07
2019-02-12T07:23:31.160Z,15.47
2019-02-12T07:26:22.123Z,12.83
2019-02-12T07:29:07.881Z,16.17
2019-02-12T07:31:55.503Z,14.33
2019-02-12T07:34:30.033Z,18.37
2019-02-12T07:37:20.472Z,13.63
2019-02-12T07:39:53.716Z,14.43
2019-02-12T07:42:47.655Z,16.13
2019-02-12T07:45:18.740Z,9.43
2019-02-12T07:47:54.168Z,19.40
2019-02-12T07:50:44.194Z,13.93
2019-02-12T07:53:37.656Z,12.27
2019-02-12T07:56:15.924Z,20.03
2019-02-12T07:59:06.356Z,14.17
2019-02-12T08:01:52.502Z,19.93
2019-02-12T08:04:26.106Z,12.53
2019-02-12T08:07:32.216Z,14.33
2019-02-12T08:10:04.664Z,12.47
2019-02-12T08:12:39.981Z,13.27
2019-02-12T08:15:14.560Z,13.33
2019-02-12T08:18:08.175Z,17.43
2019-02-12T08:20:40.133Z,10.47
2019-02-12T08:23:25.960Z,11.90
2019-02-12T08:26:13.697Z,11.23
2019-02-12T08:29:01.412Z,13.80
2019-02-12T08:31:47.617Z,14.97
2019-02-12T08:34:30.901Z,12.80
2019-02-12T08:37:14.082Z,17.60
2019-02-12T08:40:00.549Z,20.00
2019-02-12T08:42:41.104Z,11.63
2019-02-12T08:45:28.722Z,14.00
2019-02-12T08:48:22.565Z,14.87
2019-02-12T08:51:04.037Z,12.47
2019-02-12T08:53:50.613Z,17.00
2019-02-12T08:56:22.021Z,14.73
2019-02-12T08:59:12.077Z,11.87
2019-02-12T09:01:52.294Z,14.63
2019-02-12T09:04:49.237Z,13.87
2019-02-12T09:07:35.700Z,9.87
2019-02-12T09:10:23.348Z,12.30
2019-02-12T09:13:04.498Z,14.23
2019-02-12T09:16:10.533Z,11.87
2019-02-12T09:19:10.401Z,12.63
2019-02-12T09:21:56.660Z,10.60
2019-02-12T09:24:40.122Z,12.80
2019-02-12T09:27:20.745Z,13.07
2019-02-12T09:30:11.102Z,12.73
2019-02-12T09:32:48.858Z,19.30
2019-02-12T09:35:26.234Z,13.57
2019-02-12T09:38:16.593Z,18.20
2019-02-12T09:40:54.135Z,14.17
2019-02-12T09:43:47.620Z,14.13
2019-02-12T09:46:30.098Z,15.33
2019-02-12T09:49:07.070Z,12.70
2019-02-12T09:51:45.633Z,26.03
2019-02-12T09:54:31.862Z,12.37
2019-02-12T09:57:13.570Z,17.50
2019-02-12T09:59:45.074Z,13.47
2019-02-12T10:02:26.562Z,16.87
2019-02-12T10:05:03.429Z,15.97
2019-02-12T10:07:38.528Z,14.77
2019-02-12T10:10:18.214Z,14.50
2019-02-12T10:12:53.543Z,11.33
2019-02-12T10:15:44.938Z,16.47
2019-02-12T10:18:22.130Z,11.97
2019-02-12T10:21:12.555Z,19.60
2019-02-12T10:24:19.706Z,16.00
2019-02-12T10:26:49.818Z,16.27
2019-02-12T10:29:31.090Z,14.43
2019-02-12T10:32:08.221Z,14.17
2019-02-12T10:34:29.091Z,12.90
2019-02-12T10:36:57.750Z,13.17
2019-02-12T10:39:26.254Z,15.57
2019-02-12T10:41:54.778Z,14.80
2019-02-12T10:44:23.274Z,12.00
2019-02-12T10:46:51.730Z,16.40
2019-02-12T10:49:20.096Z,18.53
2019-02-12T10:51:48.499Z,14.47
2019-02-12T10:54:16.905Z,19.87
2019-02-12T10:56:45.422Z,15.53
2019-02-12T10:59:14.515Z,16.13
2019-02-12T11:01:43.375Z,20.93
2019-02-12T11:04:11.823Z,21.20
2019-02-12T11:06:40.230Z,23.33
2019-02-12T11:09:09.575Z,17.10
2019-02-12T11:11:37.975Z,27.30
2019-02-12T11:14:06.452Z,30.57
2019-02-12T11:16:34.823Z,20.73
2019-02-12T11:19:03.291Z,15.07
2019-02-12T11:21:31.695Z,13.40
2019-02-12T11:24:00.092Z,23.80
2019-02-12T11:26:28.571Z,14.33
2019-02-12T11:28:57.271Z,19.07
2019-02-12T11:31:25.769Z,14.40
2019-02-12T11:33:54.243Z,20.80
2019-02-12T11:36:22.691Z,15.17
2019-02-12T11:38:51.151Z,18.53
2019-02-12T11:41:19.619Z,16.70
2019-02-12T11:43:48.011Z,15.57
2019-02-12T11:46:16.402Z,18.17
2019-02-12T11:48:44.816Z,14.77
2019-02-12T11:51:13.287Z,16.30
2019-02-12T11:53:41.760Z,15.50
2019-02-12T11:56:10.423Z,12.10
2019-02-12T11:58:38.817Z,15.73
2019-02-12T12:01:10.748Z,11.70
2019-02-12T12:03:39.308Z,14.47
2019-02-12T12:06:07.700Z,23.07
2019-02-12T12:08:36.080Z,17.90
2019-02-12T12:11:04.552Z,14.90
2019-02-12T12:13:32.993Z,14.37
2019-02-12T12:16:01.528Z,15.23
2019-02-12T12:18:30.288Z,19.63
2019-02-12T12:20:58.704Z,15.33
2019-02-12T12:23:27.184Z,14.47
2019-02-12T12:25:55.620Z,13.27
2019-02-12T12:28:24.016Z,17.40
2019-02-12T12:30:52.475Z,15.67
2019-02-12T12:33:20.865Z,16.30
2019-02-12T12:35:49.256Z,14.43
2019-02-12T12:38:18.248Z,13.93
2019-02-12T12:40:46.689Z,10.67
2019-02-12T12:43:15.069Z,19.43
2019-02-12T12:45:43.530Z,16.63
2019-02-12T12:48:11.902Z,13.77
2019-02-12T12:50:40.313Z,23.63
2019-02-12T12:53:08.988Z,22.30
2019-02-12T12:55:37.835Z,12.80
2019-02-12T12:58:06.295Z,17.37
2019-02-12T13:00:34.791Z,20.87
2019-02-12T13:03:03.269Z,12.10
2019-02-12T13:05:31.661Z,17.23
2019-02-12T13:08:00.091Z,15.80
2019-02-12T13:10:28.568Z,12.90
2019-02-12T13:12:56.961Z,14.90
2019-02-12T13:15:25.523Z,11.63
2019-02-12T13:17:53.901Z,11.93
2019-02-12T13:20:22.381Z,14.77
2019-02-12T13:22:51.210Z,15.90
2019-02-12T13:25:19.741Z,19.17
2019-02-12T13:27:48.265Z,17.67
2019-02-12T13:30:16.811Z,14.13
2019-02-12T13:32:45.337Z,16.77
2019-02-12T13:35:14.028Z,9.20
2019-02-12T13:37:42.577Z,14.63
2019-02-12T13:40:11.269Z,12.63
2019-02-12T13:42:39.725Z,12.00
2019-02-12T13:45:08.970Z,17.17
2019-02-12T13:47:37.369Z,13.37
2019-02-12T13:50:06.127Z,13.27
2019-02-12T13:52:34.869Z,12.40
2019-02-12T13:55:03.862Z,18.70
2019-02-12T13:57:32.298Z,18.10
2019-02-12T14:00:01.010Z,10.27
2019-02-12T14:02:29.469Z,13.03
2019-02-12T14:04:58.164Z,14.67
2019-02-12T14:07:26.570Z,14.60
2019-02-12T14:09:54.958Z,16.17
2019-02-12T14:12:23.406Z,14.13
2019-02-12T14:14:51.838Z,17.60
2019-02-12T14:17:20.247Z,9.17
2019-02-12T14:19:48.666Z,12.07
2019-02-12T14:22:17.059Z,11.00
2019-02-12T14:24:45.694Z,14.43
2019-02-12T14:27:14.150Z,15.60
2019-02-12T14:29:42.531Z,15.13
2019-02-12T14:32:11.002Z,11.73
2019-02-12T14:34:39.474Z,13.90
2019-02-12T14:37:07.897Z,12.67
2019-02-12T14:39:36.322Z,11.13
2019-02-12T14:42:04.710Z,15.83
2019-02-12T14:44:33.099Z,15.33
2019-02-12T14:47:01.510Z,14.37
2019-02-12T14:49:30.339Z,12.23
2019-02-12T14:51:58.747Z,14.40
2019-02-12T14:54:27.230Z,13.43
2019-02-12T14:56:55.643Z,12.67
2019-02-12T14:59:24.010Z,17.17
2019-02-12T15:01:52.507Z,17.03
2019-02-12T15:04:20.902Z,14.27
2019-02-12T15:06:49.366Z,14.70
2019-02-12T15:09:18.198Z,15.90
2019-02-12T15:11:46.706Z,15.90
2019-02-12T15:14:15.110Z,17.07
2019-02-12T15:16:43.507Z,16.67
2019-02-12T15:19:11.978Z,16.83
2019-02-12T15:21:40.375Z,17.10
2019-02-12T15:24:09.462Z,17.63
2019-02-12T15:26:38.135Z,16.67
2019-02-12T15:29:07.047Z,17.13
2019-02-12T15:31:35.519Z,21.00
2019-02-12T15:34:03.963Z,19.67
2019-02-12T15:36:32.447Z,12.53
2019-02-12T15:39:00.831Z,15.77
2019-02-12T15:41:29.303Z,13.90
2019-02-12T15:43:57.827Z,18.93
2019-02-12T15:46:26.292Z,14.00
2019-02-12T15:48:54.675Z,15.60
2019-02-12T15:51:23.059Z,19.57
2019-02-12T15:53:51.528Z,42.50
2019-02-12T15:56:20.727Z,11.83
2019-02-12T15:58:49.695Z,15.43
2019-02-12T16:01:18.487Z,20.17
2019-02-12T16:03:46.897Z,17.53
2019-02-12T16:06:17.169Z,15.43
2019-02-12T16:08:45.476Z,15.30
2019-02-12T16:11:13.952Z,16.57
2019-02-12T16:13:42.932Z,14.83
2019-02-12T16:16:11.332Z,16.17
2019-02-12T16:18:39.816Z,15.87
2019-02-12T16:21:08.349Z,17.67
2019-02-12T16:23:37.240Z,17.27
2019-02-12T16:26:05.776Z,19.30
2019-02-12T16:28:34.180Z,18.47
2019-02-12T16:31:02.605Z,17.10
2019-02-12T16:33:50.197Z,19.07
2019-02-12T16:36:18.608Z,18.30
2019-02-12T16:38:48.922Z,13.33
2019-02-12T16:41:17.444Z,18.43
2019-02-12T16:43:45.980Z,17.73
2019-02-12T16:46:16.080Z,18.17
2019-02-12T16:48:44.545Z,19.50
2019-02-12T16:51:13.008Z,16.63
2019-02-12T16:53:41.412Z,16.67
2019-02-12T16:56:10.010Z,18.93
2019-02-12T16:58:38.395Z,22.13
2019-02-12T17:01:06.896Z,19.17
2019-02-12T17:03:35.388Z,18.73
2019-02-12T17:06:04.028Z,20.53
2019-02-12T17:08:32.436Z,20.13
2019-02-12T17:11:00.969Z,18.80
2019-02-12T17:13:29.400Z,19.57
2019-02-12T17:15:57.824Z,20.37
2019-02-12T17:18:26.496Z,21.77
2019-02-12T17:20:54.884Z,22.10
2019-02-12T17:23:23.283Z,22.00
2019-02-12T17:25:52.056Z,21.10
2019-02-12T17:28:21.229Z,18.17
2019-02-12T17:30:50.032Z,23.73
2019-02-12T17:33:18.485Z,17.33
2019-02-12T17:35:46.978Z,17.40
2019-02-12T17:38:15.461Z,19.27
2019-02-12T17:40:44.481Z,18.33
2019-02-12T17:43:13.417Z,22.50
2019-02-12T17:45:42.359Z,23.03
2019-02-12T17:48:11.297Z,25.17
2019-02-12T17:50:40.152Z,21.83
2019-02-12T17:53:09.637Z,26.20
2019-02-12T17:55:38.582Z,26.50
2019-02-12T17:58:07.518Z,21.97
2019-02-12T18:00:40.169Z,20.93
2019-02-12T18:03:09.205Z,19.53
2019-02-12T18:05:38.501Z,20.60
2019-02-12T18:08:07.385Z,16.53
2019-02-12T18:10:36.497Z,20.57
2019-02-12T18:13:05.374Z,21.30
2019-02-12T18:15:34.229Z,21.10
2019-02-12T18:18:03.197Z,19.80
2019-02-12T18:20:32.297Z,18.92
2019-02-12T18:23:01.322Z,20.80
2019-02-12T18:25:30.845Z,19.63
2019-02-12T18:28:00.827Z,20.30
2019-02-12T18:30:29.829Z,21.63
2019-02-12T18:32:58.713Z,20.83
2019-02-12T18:35:27.665Z,19.90
2019-02-12T18:37:57.056Z,21.90
2019-02-12T18:40:25.981Z,21.27
2019-02-12T18:42:54.952Z,21.43
2019-02-12T18:45:24.528Z,23.77
2019-02-12T18:47:53.504Z,21.83
2019-02-12T18:50:23.020Z,23.97
2019-02-12T18:52:51.973Z,23.40
2019-02-12T18:55:20.944Z,24.07
2019-02-12T18:57:49.940Z,22.93
2019-02-12T19:00:19.702Z,23.67
2019-02-12T19:02:48.671Z,22.13
2019-02-12T19:05:17.736Z,26.87
2019-02-12T19:07:46.688Z,23.57
2019-02-12T19:10:15.764Z,23.97
2019-02-12T19:12:45.238Z,29.60
2019-02-12T19:15:15.352Z,25.53
2019-02-12T19:17:46.913Z,27.40
2019-02-12T19:20:15.872Z,22.67
2019-02-12T19:22:44.768Z,26.27
2019-02-12T19:25:13.865Z,26.57
2019-02-12T19:27:42.813Z,29.47
2019-02-12T19:30:13.421Z,30.83
2019-02-12T19:32:42.769Z,26.93
2019-02-12T19:35:11.849Z,27.03
2019-02-12T19:37:41.008Z,26.77
2019-02-12T19:40:10.275Z,28.40
2019-02-12T19:42:39.145Z,27.07
2019-02-12T19:45:09.321Z,25.27
2019-02-12T19:47:38.200Z,28.47
2019-02-12T19:50:08.033Z,25.80
2019-02-12T19:52:36.969Z,25.37
2019-02-12T19:55:06.769Z,25.20
2019-02-12T19:57:35.724Z,28.20
2019-02-12T20:00:05.714Z,26.43
2019-02-12T20:02:34.656Z,26.05
2019-02-12T20:05:04.966Z,25.43
2019-02-12T20:07:33.986Z,28.17
2019-02-12T20:10:03.358Z,30.30
2019-02-12T20:12:32.390Z,26.00
2019-02-12T20:15:01.316Z,28.83
2019-02-12T20:17:30.205Z,28.70
2019-02-12T20:19:59.171Z,27.60
2019-02-12T20:22:28.114Z,27.07
2019-02-12T20:24:57.124Z,28.23
2019-02-12T20:27:26.199Z,26.40
2019-02-12T20:29:55.246Z,26.83
2019-02-12T20:32:24.222Z,25.17
2019-02-12T20:34:53.435Z,23.47
2019-02-12T20:37:23.046Z,23.63
2019-02-12T20:39:52.011Z,26.53
2019-02-12T20:42:21.019Z,24.80
2019-02-12T20:44:50.223Z,24.90
2019-02-12T20:47:19.187Z,26.13
2019-02-12T20:49:48.090Z,27.60
2019-02-12T20:52:17.111Z,25.87
2019-02-12T20:54:46.555Z,24.53
2019-02-12T20:57:15.641Z,23.17
2019-02-12T20:59:44.563Z,24.53
2019-02-12T21:02:13.471Z,24.60
2019-02-12T21:04:42.471Z,24.67
2019-02-12T21:07:11.371Z,26.97
2019-02-12T21:09:40.427Z,26.07
2019-02-12T21:12:09.549Z,25.93
2019-02-12T21:14:38.559Z,23.33
2019-02-12T21:17:07.808Z,21.57
2019-02-12T21:19:36.780Z,25.73
2019-02-12T21:22:05.743Z,27.03
2019-02-12T21:24:34.783Z,28.17
2019-02-12T21:27:03.799Z,26.00
2019-02-12T21:29:32.955Z,24.18
2019-02-12T21:32:02.205Z,24.03
2019-02-12T21:34:31.103Z,23.67
2019-02-12T21:37:00.067Z,26.33
2019-02-12T21:39:29.051Z,23.97
2019-02-12T21:41:58.025Z,26.03
2019-02-12T21:44:26.936Z,26.67
2019-02-12T21:46:55.842Z,25.17
2019-02-12T21:49:24.723Z,26.17
2019-02-12T21:51:53.599Z,24.53
2019-02-12T21:54:23.499Z,25.80
2019-02-12T21:56:52.455Z,26.37
2019-02-12T21:59:21.311Z,22.33
2019-02-12T22:01:50.199Z,28.60
2019-02-12T22:04:19.519Z,26.10
2019-02-12T22:06:48.559Z,24.77
2019-02-12T22:09:17.463Z,24.77
2019-02-12T22:11:46.411Z,27.20
2019-02-12T22:14:15.255Z,24.60
2019-02-12T22:16:44.287Z,28.80
2019-02-12T22:19:13.148Z,25.23
2019-02-12T22:21:42.377Z,25.97
2019-02-12T22:24:11.339Z,29.23
2019-02-12T22:26:40.361Z,26.07
2019-02-12T22:29:09.243Z,22.80
2019-02-12T22:31:38.119Z,25.57
2019-02-12T22:34:07.083Z,25.80
2019-02-12T22:36:36.108Z,25.40
2019-02-12T22:39:06.603Z,26.67
2019-02-12T22:41:35.493Z,28.52
2019-02-12T22:44:04.524Z,28.20
2019-02-12T22:46:33.457Z,25.33
2019-02-12T22:49:02.332Z,25.03
2019-02-12T22:51:31.588Z,25.57
2019-02-12T22:54:00.536Z,25.30
2019-02-12T22:56:29.468Z,28.12
2019-02-12T22:58:58.356Z,23.13
2019-02-12T23:01:37.000Z,25.73
2019-02-12T23:04:06.241Z,27.27
2019-02-12T23:06:35.280Z,25.37
2019-02-12T23:09:08.656Z,26.70
2019-02-12T23:11:37.695Z,26.83
2019-02-12T23:14:06.684Z,26.20
2019-02-12T23:16:36.064Z,25.48
2019-02-12T23:19:05.228Z,25.77
2019-02-12T23:21:34.276Z,25.33
2019-02-12T23:24:03.556Z,22.87
2019-02-12T23:26:32.420Z,24.07
2019-02-12T23:29:01.280Z,24.33
2019-02-12T23:31:30.172Z,25.80
2019-02-12T23:33:59.123Z,24.30
2019-02-12T23:36:28.113Z,25.17
2019-02-12T23:38:56.985Z,24.17
2019-02-12T23:41:25.908Z,24.00
2019-02-12T23:43:55.211Z,22.23
2019-02-12T23:46:24.228Z,26.20
2019-02-12T23:48:53.204Z,26.43
2019-02-12T23:51:22.157Z,24.70
2019-02-12T23:53:51.260Z,24.17
2019-02-12T23:56:20.309Z,24.50
2019-02-12T23:58:49.524Z,25.13
